sensor_id;sensor_type;location;lat;lon;timestamp;P1;durP1;ratioP1;P2;durP2;ratioP2
17181;SDS011;8706;48.254;16.422;2023-12-28T00:01:51;2.70;;;2.50;;
17181;SDS011;8706;48.254;16.422;2023-12-28T00:04:18;2.73;;;2.53;;
17181;SDS011;8706;48.254;16.422;2023-12-28T00:06:45;2.67;;;2.47;;
17181;SDS011;8706;48.254;16.422;2023-12-28T00:09:12;2.73;;;2.53;;
17181;SDS011;8706;48.254;16.422;2023-12-28T00:11:38;2.83;;;2.63;;
17181;SDS011;8706;48.254;16.422;2023-12-28T00:14:05;2.77;;;2.57;;
17181;SDS011;8706;48.254;16.422;2023-12-28T00:16:32;3.00;;;2.80;;
17181;SDS011;8706;48.254;16.422;2023-12-28T00:19:00;2.80;;;2.60;;
17181;SDS011;8706;48.254;16.422;2023-12-28T00:21:28;2.97;;;2.77;;
17181;SDS011;8706;48.254;16.422;2023-12-28T00:23:55;2.90;;;2.70;;
17181;SDS011;8706;48.254;16.422;2023-12-28T00:26:22;2.90;;;2.70;;
17181;SDS011;8706;48.254;16.422;2023-12-28T00:28:49;2.90;;;2.70;;
17181;SDS011;8706;48.254;16.422;2023-12-28T00:31:16;2.87;;;2.67;;
17181;SDS011;8706;48.254;16.422;2023-12-28T00:33:43;2.90;;;2.70;;
17181;SDS011;8706;48.254;16.422;2023-12-28T00:36:11;3.13;;;2.90;;
17181;SDS011;8706;48.254;16.422;2023-12-28T00:38:38;2.80;;;2.60;;
17181;SDS011;8706;48.254;16.422;2023-12-28T00:41:05;2.70;;;2.50;;
17181;SDS011;8706;48.254;16.422;2023-12-28T00:43:32;2.70;;;2.50;;
17181;SDS011;8706;48.254;16.422;2023-12-28T00:45:59;2.90;;;2.70;;
17181;SDS011;8706;48.254;16.422;2023-12-28T00:48:26;2.97;;;2.77;;
17181;SDS011;8706;48.254;16.422;2023-12-28T00:50:53;3.03;;;2.73;;
17181;SDS011;8706;48.254;16.422;2023-12-28T00:53:25;2.80;;;2.60;;
17181;SDS011;8706;48.254;16.422;2023-12-28T00:55:52;3.30;;;3.00;;
17181;SDS011;8706;48.254;16.422;2023-12-28T00:58:19;2.60;;;2.40;;
17181;SDS011;8706;48.254;16.422;2023-12-28T01:00:46;3.00;;;2.80;;
17181;SDS011;8706;48.254;16.422;2023-12-28T01:03:12;3.10;;;2.90;;
17181;SDS011;8706;48.254;16.422;2023-12-28T01:05:39;3.10;;;2.90;;
17181;SDS011;8706;48.254;16.422;2023-12-28T01:08:06;3.07;;;2.87;;
17181;SDS011;8706;48.254;16.422;2023-12-28T01:10:34;3.17;;;2.87;;
17181;SDS011;8706;48.254;16.422;2023-12-28T01:13:01;2.83;;;2.63;;
17181;SDS011;8706;48.254;16.422;2023-12-28T01:15:27;3.17;;;2.97;;
17181;SDS011;8706;48.254;16.422;2023-12-28T01:17:54;3.23;;;2.93;;
17181;SDS011;8706;48.254;16.422;2023-12-28T01:20:21;3.20;;;2.80;;
17181;SDS011;8706;48.254;16.422;2023-12-28T01:22:48;3.13;;;2.93;;
17181;SDS011;8706;48.254;16.422;2023-12-28T01:25:15;3.20;;;3.00;;
17181;SDS011;8706;48.254;16.422;2023-12-28T01:27:44;2.53;;;2.37;;
17181;SDS011;8706;48.254;16.422;2023-12-28T01:30:13;3.40;;;3.10;;
17181;SDS011;8706;48.254;16.422;2023-12-28T01:32:40;3.40;;;2.97;;
17181;SDS011;8706;48.254;16.422;2023-12-28T01:35:07;2.80;;;2.60;;
17181;SDS011;8706;48.254;16.422;2023-12-28T01:37:34;3.23;;;3.03;;
17181;SDS011;8706;48.254;16.422;2023-12-28T01:40:01;3.10;;;2.90;;
17181;SDS011;8706;48.254;16.422;2023-12-28T01:42:28;3.53;;;3.23;;
17181;SDS011;8706;48.254;16.422;2023-12-28T01:44:58;3.37;;;3.13;;
17181;SDS011;8706;48.254;16.422;2023-12-28T01:47:25;3.17;;;2.97;;
17181;SDS011;8706;48.254;16.422;2023-12-28T01:49:52;3.00;;;2.77;;
17181;SDS011;8706;48.254;16.422;2023-12-28T01:52:19;3.43;;;3.13;;
17181;SDS011;8706;48.254;16.422;2023-12-28T01:54:46;2.90;;;2.70;;
17181;SDS011;8706;48.254;16.422;2023-12-28T01:57:15;3.13;;;2.93;;
17181;SDS011;8706;48.254;16.422;2023-12-28T01:59:42;3.53;;;3.27;;
17181;SDS011;8706;48.254;16.422;2023-12-28T02:02:11;3.50;;;3.20;;
17181;SDS011;8706;48.254;16.422;2023-12-28T02:04:39;3.10;;;2.90;;
17181;SDS011;8706;48.254;16.422;2023-12-28T02:07:06;3.27;;;3.07;;
17181;SDS011;8706;48.254;16.422;2023-12-28T02:09:34;3.47;;;3.17;;
17181;SDS011;8706;48.254;16.422;2023-12-28T02:12:01;3.13;;;2.93;;
17181;SDS011;8706;48.254;16.422;2023-12-28T02:14:28;3.70;;;3.40;;
17181;SDS011;8706;48.254;16.422;2023-12-28T02:16:57;3.27;;;3.07;;
17181;SDS011;8706;48.254;16.422;2023-12-28T02:19:36;3.60;;;3.30;;
17181;SDS011;8706;48.254;16.422;2023-12-28T02:22:07;3.43;;;3.13;;
17181;SDS011;8706;48.254;16.422;2023-12-28T02:27:30;3.97;;;3.67;;
17181;SDS011;8706;48.254;16.422;2023-12-28T02:29:57;3.23;;;3.03;;
17181;SDS011;8706;48.254;16.422;2023-12-28T02:32:25;3.40;;;3.10;;
17181;SDS011;8706;48.254;16.422;2023-12-28T02:35:03;3.10;;;2.90;;
17181;SDS011;8706;48.254;16.422;2023-12-28T02:37:38;3.30;;;3.10;;
17181;SDS011;8706;48.254;16.422;2023-12-28T02:40:07;3.60;;;3.30;;
17181;SDS011;8706;48.254;16.422;2023-12-28T02:42:35;3.43;;;3.13;;
17181;SDS011;8706;48.254;16.422;2023-12-28T02:45:03;3.60;;;3.30;;
17181;SDS011;8706;48.254;16.422;2023-12-28T02:47:31;3.67;;;3.37;;
17181;SDS011;8706;48.254;16.422;2023-12-28T02:49:58;4.00;;;3.70;;
17181;SDS011;8706;48.254;16.422;2023-12-28T02:52:25;3.60;;;3.30;;
17181;SDS011;8706;48.254;16.422;2023-12-28T02:54:52;3.60;;;3.30;;
17181;SDS011;8706;48.254;16.422;2023-12-28T02:57:20;3.63;;;3.33;;
17181;SDS011;8706;48.254;16.422;2023-12-28T02:59:47;3.70;;;3.40;;
17181;SDS011;8706;48.254;16.422;2023-12-28T03:02:14;3.87;;;3.57;;
17181;SDS011;8706;48.254;16.422;2023-12-28T03:04:40;3.57;;;3.33;;
17181;SDS011;8706;48.254;16.422;2023-12-28T03:07:08;3.13;;;2.93;;
17181;SDS011;8706;48.254;16.422;2023-12-28T03:09:34;3.23;;;3.03;;
17181;SDS011;8706;48.254;16.422;2023-12-28T03:12:04;3.30;;;3.10;;
17181;SDS011;8706;48.254;16.422;2023-12-28T03:14:33;4.57;;;3.63;;
17181;SDS011;8706;48.254;16.422;2023-12-28T03:16:59;4.00;;;3.70;;
17181;SDS011;8706;48.254;16.422;2023-12-28T03:19:26;3.83;;;3.53;;
17181;SDS011;8706;48.254;16.422;2023-12-28T03:21:53;3.43;;;3.13;;
17181;SDS011;8706;48.254;16.422;2023-12-28T03:24:20;3.20;;;3.00;;
17181;SDS011;8706;48.254;16.422;2023-12-28T03:26:47;4.00;;;3.70;;
17181;SDS011;8706;48.254;16.422;2023-12-28T03:29:14;3.97;;;3.67;;
17181;SDS011;8706;48.254;16.422;2023-12-28T03:31:42;3.80;;;3.50;;
17181;SDS011;8706;48.254;16.422;2023-12-28T03:34:09;4.00;;;3.70;;
17181;SDS011;8706;48.254;16.422;2023-12-28T03:36:36;3.87;;;3.57;;
17181;SDS011;8706;48.254;16.422;2023-12-28T03:39:02;4.03;;;3.73;;
17181;SDS011;8706;48.254;16.422;2023-12-28T03:41:30;3.57;;;3.27;;
17181;SDS011;8706;48.254;16.422;2023-12-28T03:43:57;3.40;;;3.20;;
17181;SDS011;8706;48.254;16.422;2023-12-28T03:46:24;4.00;;;3.70;;
17181;SDS011;8706;48.254;16.422;2023-12-28T03:48:53;4.30;;;3.90;;
17181;SDS011;8706;48.254;16.422;2023-12-28T03:51:20;3.90;;;3.60;;
17181;SDS011;8706;48.254;16.422;2023-12-28T03:53:46;3.63;;;3.33;;
17181;SDS011;8706;48.254;16.422;2023-12-28T03:56:23;3.77;;;3.47;;
17181;SDS011;8706;48.254;16.422;2023-12-28T03:58:50;3.77;;;3.47;;
17181;SDS011;8706;48.254;16.422;2023-12-28T04:01:18;4.00;;;3.70;;
17181;SDS011;8706;48.254;16.422;2023-12-28T04:03:45;4.00;;;3.70;;
17181;SDS011;8706;48.254;16.422;2023-12-28T04:06:14;3.80;;;3.50;;
17181;SDS011;8706;48.254;16.422;2023-12-28T04:08:42;4.27;;;3.87;;
17181;SDS011;8706;48.254;16.422;2023-12-28T04:11:09;4.10;;;3.80;;
17181;SDS011;8706;48.254;16.422;2023-12-28T04:13:36;4.43;;;4.03;;
17181;SDS011;8706;48.254;16.422;2023-12-28T04:16:04;4.50;;;4.10;;
17181;SDS011;8706;48.254;16.422;2023-12-28T04:18:31;4.13;;;3.73;;
17181;SDS011;8706;48.254;16.422;2023-12-28T04:20:58;3.80;;;3.50;;
17181;SDS011;8706;48.254;16.422;2023-12-28T04:23:26;4.17;;;3.87;;
17181;SDS011;8706;48.254;16.422;2023-12-28T04:25:53;3.93;;;3.63;;
17181;SDS011;8706;48.254;16.422;2023-12-28T04:28:19;4.00;;;3.60;;
17181;SDS011;8706;48.254;16.422;2023-12-28T04:30:46;4.10;;;3.80;;
17181;SDS011;8706;48.254;16.422;2023-12-28T04:33:16;4.10;;;3.80;;
17181;SDS011;8706;48.254;16.422;2023-12-28T04:35:43;4.20;;;3.90;;
17181;SDS011;8706;48.254;16.422;2023-12-28T04:38:10;4.10;;;3.80;;
17181;SDS011;8706;48.254;16.422;2023-12-28T04:40:39;3.93;;;3.63;;
17181;SDS011;8706;48.254;16.422;2023-12-28T04:43:06;4.20;;;3.90;;
17181;SDS011;8706;48.254;16.422;2023-12-28T04:45:32;4.20;;;3.80;;
17181;SDS011;8706;48.254;16.422;2023-12-28T04:47:59;4.03;;;3.73;;
17181;SDS011;8706;48.254;16.422;2023-12-28T04:50:26;4.10;;;3.80;;
17181;SDS011;8706;48.254;16.422;2023-12-28T04:52:53;4.30;;;4.00;;
17181;SDS011;8706;48.254;16.422;2023-12-28T04:55:20;4.30;;;4.00;;
17181;SDS011;8706;48.254;16.422;2023-12-28T04:57:48;3.93;;;3.63;;
17181;SDS011;8706;48.254;16.422;2023-12-28T05:00:15;4.10;;;3.80;;
17181;SDS011;8706;48.254;16.422;2023-12-28T05:02:42;4.20;;;3.90;;
17181;SDS011;8706;48.254;16.422;2023-12-28T05:05:11;4.40;;;4.10;;
17181;SDS011;8706;48.254;16.422;2023-12-28T05:07:38;5.13;;;4.70;;
17181;SDS011;8706;48.254;16.422;2023-12-28T05:10:05;4.70;;;4.30;;
17181;SDS011;8706;48.254;16.422;2023-12-28T05:12:32;3.90;;;3.60;;
17181;SDS011;8706;48.254;16.422;2023-12-28T05:15:01;4.40;;;4.10;;
17181;SDS011;8706;48.254;16.422;2023-12-28T05:17:27;4.40;;;4.00;;
17181;SDS011;8706;48.254;16.422;2023-12-28T05:19:54;4.40;;;4.10;;
17181;SDS011;8706;48.254;16.422;2023-12-28T05:22:22;4.23;;;3.93;;
17181;SDS011;8706;48.254;16.422;2023-12-28T05:24:48;4.30;;;4.00;;
17181;SDS011;8706;48.254;16.422;2023-12-28T05:27:15;4.50;;;4.10;;
17181;SDS011;8706;48.254;16.422;2023-12-28T05:29:42;4.70;;;4.40;;
17181;SDS011;8706;48.254;16.422;2023-12-28T05:32:11;5.07;;;4.67;;
17181;SDS011;8706;48.254;16.422;2023-12-28T05:34:37;4.40;;;4.10;;
17181;SDS011;8706;48.254;16.422;2023-12-28T05:37:04;4.13;;;3.83;;
17181;SDS011;8706;48.254;16.422;2023-12-28T05:39:31;4.67;;;4.30;;
17181;SDS011;8706;48.254;16.422;2023-12-28T05:41:58;4.23;;;3.93;;
17181;SDS011;8706;48.254;16.422;2023-12-28T05:44:25;4.50;;;4.20;;
17181;SDS011;8706;48.254;16.422;2023-12-28T05:46:52;4.40;;;4.00;;
17181;SDS011;8706;48.254;16.422;2023-12-28T05:49:20;4.50;;;4.20;;
17181;SDS011;8706;48.254;16.422;2023-12-28T05:51:47;4.73;;;4.33;;
17181;SDS011;8706;48.254;16.422;2023-12-28T05:54:14;4.50;;;4.10;;
17181;SDS011;8706;48.254;16.422;2023-12-28T05:56:41;4.20;;;3.90;;
17181;SDS011;8706;48.254;16.422;2023-12-28T05:59:07;4.30;;;4.00;;
17181;SDS011;8706;48.254;16.422;2023-12-28T06:01:41;4.80;;;4.40;;
17181;SDS011;8706;48.254;16.422;2023-12-28T06:04:08;5.10;;;4.70;;
17181;SDS011;8706;48.254;16.422;2023-12-28T06:06:36;5.00;;;4.60;;
17181;SDS011;8706;48.254;16.422;2023-12-28T06:09:03;4.80;;;4.40;;
17181;SDS011;8706;48.254;16.422;2023-12-28T06:11:30;5.10;;;4.60;;
17181;SDS011;8706;48.254;16.422;2023-12-28T06:13:57;4.50;;;4.10;;
17181;SDS011;8706;48.254;16.422;2023-12-28T06:16:24;4.87;;;4.50;;
17181;SDS011;8706;48.254;16.422;2023-12-28T06:18:51;4.90;;;4.50;;
17181;SDS011;8706;48.254;16.422;2023-12-28T06:21:18;4.90;;;4.50;;
17181;SDS011;8706;48.254;16.422;2023-12-28T06:23:47;4.80;;;4.40;;
17181;SDS011;8706;48.254;16.422;2023-12-28T06:26:14;4.43;;;4.13;;
17181;SDS011;8706;48.254;16.422;2023-12-28T06:28:41;4.97;;;4.57;;
17181;SDS011;8706;48.254;16.422;2023-12-28T06:31:07;5.23;;;4.80;;
17181;SDS011;8706;48.254;16.422;2023-12-28T06:33:34;5.50;;;5.10;;
17181;SDS011;8706;48.254;16.422;2023-12-28T06:36:04;4.67;;;4.37;;
17181;SDS011;8706;48.254;16.422;2023-12-28T06:38:32;4.57;;;4.27;;
17181;SDS011;8706;48.254;16.422;2023-12-28T06:41:00;5.03;;;4.63;;
17181;SDS011;8706;48.254;16.422;2023-12-28T06:43:27;5.07;;;4.67;;
17181;SDS011;8706;48.254;16.422;2023-12-28T06:45:54;5.10;;;4.70;;
17181;SDS011;8706;48.254;16.422;2023-12-28T06:48:20;4.60;;;4.20;;
17181;SDS011;8706;48.254;16.422;2023-12-28T06:50:48;4.80;;;4.40;;
17181;SDS011;8706;48.254;16.422;2023-12-28T06:53:15;4.83;;;4.43;;
17181;SDS011;8706;48.254;16.422;2023-12-28T06:55:42;4.77;;;4.47;;
17181;SDS011;8706;48.254;16.422;2023-12-28T06:58:10;5.03;;;4.63;;
17181;SDS011;8706;48.254;16.422;2023-12-28T07:00:37;4.90;;;4.50;;
17181;SDS011;8706;48.254;16.422;2023-12-28T07:03:04;4.93;;;4.53;;
17181;SDS011;8706;48.254;16.422;2023-12-28T07:05:30;5.10;;;4.70;;
17181;SDS011;8706;48.254;16.422;2023-12-28T07:07:57;4.67;;;4.27;;
17181;SDS011;8706;48.254;16.422;2023-12-28T07:10:24;5.07;;;4.67;;
17181;SDS011;8706;48.254;16.422;2023-12-28T07:12:51;5.13;;;4.63;;
17181;SDS011;8706;48.254;16.422;2023-12-28T07:15:19;5.37;;;4.90;;
17181;SDS011;8706;48.254;16.422;2023-12-28T07:17:46;4.80;;;4.40;;
17181;SDS011;8706;48.254;16.422;2023-12-28T07:20:13;4.60;;;4.23;;
17181;SDS011;8706;48.254;16.422;2023-12-28T07:22:40;4.90;;;4.50;;
17181;SDS011;8706;48.254;16.422;2023-12-28T07:25:07;5.00;;;4.60;;
17181;SDS011;8706;48.254;16.422;2023-12-28T07:27:34;4.93;;;4.53;;
17181;SDS011;8706;48.254;16.422;2023-12-28T07:30:01;5.60;;;5.17;;
17181;SDS011;8706;48.254;16.422;2023-12-28T07:32:30;5.37;;;4.97;;
17181;SDS011;8706;48.254;16.422;2023-12-28T07:34:57;5.23;;;4.83;;
17181;SDS011;8706;48.254;16.422;2023-12-28T07:37:25;5.00;;;4.60;;
17181;SDS011;8706;48.254;16.422;2023-12-28T07:39:52;4.90;;;4.50;;
17181;SDS011;8706;48.254;16.422;2023-12-28T07:42:19;4.73;;;4.40;;
17181;SDS011;8706;48.254;16.422;2023-12-28T07:44:46;5.67;;;5.27;;
17181;SDS011;8706;48.254;16.422;2023-12-28T07:47:12;5.03;;;4.63;;
17181;SDS011;8706;48.254;16.422;2023-12-28T07:49:40;5.40;;;5.00;;
17181;SDS011;8706;48.254;16.422;2023-12-28T07:52:07;4.90;;;4.50;;
17181;SDS011;8706;48.254;16.422;2023-12-28T07:54:34;5.00;;;4.60;;
17181;SDS011;8706;48.254;16.422;2023-12-28T07:57:01;4.83;;;4.43;;
17181;SDS011;8706;48.254;16.422;2023-12-28T07:59:28;5.33;;;4.93;;
17181;SDS011;8706;48.254;16.422;2023-12-28T08:01:55;5.43;;;4.93;;
17181;SDS011;8706;48.254;16.422;2023-12-28T08:04:22;5.70;;;5.20;;
17181;SDS011;8706;48.254;16.422;2023-12-28T08:06:50;5.20;;;4.80;;
17181;SDS011;8706;48.254;16.422;2023-12-28T08:09:17;4.83;;;4.43;;
17181;SDS011;8706;48.254;16.422;2023-12-28T08:11:44;5.10;;;4.70;;
17181;SDS011;8706;48.254;16.422;2023-12-28T08:14:11;5.13;;;4.73;;
17181;SDS011;8706;48.254;16.422;2023-12-28T08:16:38;5.20;;;4.80;;
17181;SDS011;8706;48.254;16.422;2023-12-28T08:19:05;5.43;;;5.03;;
17181;SDS011;8706;48.254;16.422;2023-12-28T08:21:32;5.80;;;5.37;;
17181;SDS011;8706;48.254;16.422;2023-12-28T08:24:00;5.50;;;5.10;;
17181;SDS011;8706;48.254;16.422;2023-12-28T08:26:28;5.30;;;4.90;;
17181;SDS011;8706;48.254;16.422;2023-12-28T08:28:55;5.70;;;5.27;;
17181;SDS011;8706;48.254;16.422;2023-12-28T08:31:22;5.63;;;5.13;;
17181;SDS011;8706;48.254;16.422;2023-12-28T08:33:49;5.60;;;5.20;;
17181;SDS011;8706;48.254;16.422;2023-12-28T08:36:16;5.77;;;5.30;;
17181;SDS011;8706;48.254;16.422;2023-12-28T08:38:43;5.60;;;5.20;;
17181;SDS011;8706;48.254;16.422;2023-12-28T08:41:18;5.40;;;5.00;;
17181;SDS011;8706;48.254;16.422;2023-12-28T08:43:45;5.30;;;4.90;;
17181;SDS011;8706;48.254;16.422;2023-12-28T08:46:12;5.23;;;4.83;;
17181;SDS011;8706;48.254;16.422;2023-12-28T08:48:40;5.10;;;4.70;;
17181;SDS011;8706;48.254;16.422;2023-12-28T08:51:07;5.30;;;4.90;;
17181;SDS011;8706;48.254;16.422;2023-12-28T08:53:35;5.37;;;4.97;;
17181;SDS011;8706;48.254;16.422;2023-12-28T08:56:03;5.53;;;5.13;;
17181;SDS011;8706;48.254;16.422;2023-12-28T08:58:39;4.90;;;4.50;;
17181;SDS011;8706;48.254;16.422;2023-12-28T09:01:06;5.13;;;4.73;;
17181;SDS011;8706;48.254;16.422;2023-12-28T09:03:33;5.33;;;4.93;;
17181;SDS011;8706;48.254;16.422;2023-12-28T09:06:00;5.23;;;4.83;;
17181;SDS011;8706;48.254;16.422;2023-12-28T09:08:27;5.67;;;5.03;;
17181;SDS011;8706;48.254;16.422;2023-12-28T09:10:54;6.30;;;5.80;;
17181;SDS011;8706;48.254;16.422;2023-12-28T09:13:21;5.50;;;5.10;;
17181;SDS011;8706;48.254;16.422;2023-12-28T09:15:49;6.73;;;6.13;;
17181;SDS011;8706;48.254;16.422;2023-12-28T09:18:16;5.00;;;4.60;;
17181;SDS011;8706;48.254;16.422;2023-12-28T09:20:43;5.47;;;5.00;;
17181;SDS011;8706;48.254;16.422;2023-12-28T09:23:10;5.33;;;4.93;;
17181;SDS011;8706;48.254;16.422;2023-12-28T09:25:36;5.67;;;5.27;;
17181;SDS011;8706;48.254;16.422;2023-12-28T09:28:04;5.47;;;4.97;;
17181;SDS011;8706;48.254;16.422;2023-12-28T09:30:31;6.00;;;5.50;;
17181;SDS011;8706;48.254;16.422;2023-12-28T09:32:59;5.87;;;5.40;;
17181;SDS011;8706;48.254;16.422;2023-12-28T09:35:26;5.43;;;4.97;;
17181;SDS011;8706;48.254;16.422;2023-12-28T09:37:53;6.30;;;5.80;;
17181;SDS011;8706;48.254;16.422;2023-12-28T09:40:21;6.67;;;6.17;;
17181;SDS011;8706;48.254;16.422;2023-12-28T09:42:48;5.67;;;5.20;;
17181;SDS011;8706;48.254;16.422;2023-12-28T09:45:23;7.40;;;6.73;;
17181;SDS011;8706;48.254;16.422;2023-12-28T09:47:50;6.07;;;5.57;;
17181;SDS011;8706;48.254;16.422;2023-12-28T09:50:19;5.93;;;5.43;;
17181;SDS011;8706;48.254;16.422;2023-12-28T09:52:46;5.60;;;5.20;;
17181;SDS011;8706;48.254;16.422;2023-12-28T09:55:13;6.77;;;6.10;;
17181;SDS011;8706;48.254;16.422;2023-12-28T09:57:40;6.07;;;5.57;;
17181;SDS011;8706;48.254;16.422;2023-12-28T10:00:07;5.90;;;5.40;;
17181;SDS011;8706;48.254;16.422;2023-12-28T10:02:37;5.63;;;5.13;;
17181;SDS011;8706;48.254;16.422;2023-12-28T10:05:06;5.73;;;5.23;;
17181;SDS011;8706;48.254;16.422;2023-12-28T10:07:41;5.77;;;5.27;;
17181;SDS011;8706;48.254;16.422;2023-12-28T10:10:08;6.40;;;5.80;;
17181;SDS011;8706;48.254;16.422;2023-12-28T10:12:35;6.60;;;6.00;;
17181;SDS011;8706;48.254;16.422;2023-12-28T10:15:02;6.83;;;6.33;;
17181;SDS011;8706;48.254;16.422;2023-12-28T10:17:32;6.63;;;6.13;;
17181;SDS011;8706;48.254;16.422;2023-12-28T10:19:59;6.40;;;5.80;;
17181;SDS011;8706;48.254;16.422;2023-12-28T10:22:29;6.47;;;5.97;;
17181;SDS011;8706;48.254;16.422;2023-12-28T10:24:58;6.60;;;6.00;;
17181;SDS011;8706;48.254;16.422;2023-12-28T10:27:25;6.00;;;5.50;;
17181;SDS011;8706;48.254;16.422;2023-12-28T10:29:53;6.83;;;6.23;;
17181;SDS011;8706;48.254;16.422;2023-12-28T10:32:21;6.53;;;6.03;;
17181;SDS011;8706;48.254;16.422;2023-12-28T10:34:50;6.33;;;5.80;;
17181;SDS011;8706;48.254;16.422;2023-12-28T10:37:18;6.30;;;5.80;;
17181;SDS011;8706;48.254;16.422;2023-12-28T10:39:46;6.20;;;5.60;;
17181;SDS011;8706;48.254;16.422;2023-12-28T10:42:16;6.23;;;5.73;;
17181;SDS011;8706;48.254;16.422;2023-12-28T10:44:51;6.50;;;5.93;;
17181;SDS011;8706;48.254;16.422;2023-12-28T10:47:21;6.93;;;6.33;;
17181;SDS011;8706;48.254;16.422;2023-12-28T10:49:51;6.63;;;6.13;;
17181;SDS011;8706;48.254;16.422;2023-12-28T10:52:21;6.80;;;6.20;;
17181;SDS011;8706;48.254;16.422;2023-12-28T10:54:57;6.00;;;5.50;;
17181;SDS011;8706;48.254;16.422;2023-12-28T10:57:49;6.53;;;6.03;;
17181;SDS011;8706;48.254;16.422;2023-12-28T11:00:25;6.53;;;6.03;;
17181;SDS011;8706;48.254;16.422;2023-12-28T11:02:57;6.17;;;5.67;;
17181;SDS011;8706;48.254;16.422;2023-12-28T11:05:30;6.50;;;6.00;;
17181;SDS011;8706;48.254;16.422;2023-12-28T11:07:59;6.50;;;6.00;;
17181;SDS011;8706;48.254;16.422;2023-12-28T11:10:28;6.40;;;5.90;;
17181;SDS011;8706;48.254;16.422;2023-12-28T11:12:59;6.57;;;5.97;;
17181;SDS011;8706;48.254;16.422;2023-12-28T11:15:28;7.10;;;6.50;;
17181;SDS011;8706;48.254;16.422;2023-12-28T11:17:57;6.83;;;6.23;;
17181;SDS011;8706;48.254;16.422;2023-12-28T11:20:24;7.20;;;6.60;;
17181;SDS011;8706;48.254;16.422;2023-12-28T11:22:53;6.50;;;5.93;;
17181;SDS011;8706;48.254;16.422;2023-12-28T11:25:20;6.23;;;5.73;;
17181;SDS011;8706;48.254;16.422;2023-12-28T11:27:47;6.67;;;6.13;;
17181;SDS011;8706;48.254;16.422;2023-12-28T11:30:16;6.07;;;5.57;;
17181;SDS011;8706;48.254;16.422;2023-12-28T11:32:43;6.97;;;6.47;;
17181;SDS011;8706;48.254;16.422;2023-12-28T11:35:10;6.40;;;5.80;;
17181;SDS011;8706;48.254;16.422;2023-12-28T11:37:38;6.13;;;5.63;;
17181;SDS011;8706;48.254;16.422;2023-12-28T11:40:10;6.60;;;6.00;;
17181;SDS011;8706;48.254;16.422;2023-12-28T11:42:47;7.30;;;6.70;;
17181;SDS011;8706;48.254;16.422;2023-12-28T11:45:17;6.63;;;6.03;;
17181;SDS011;8706;48.254;16.422;2023-12-28T11:47:44;7.10;;;6.50;;
17181;SDS011;8706;48.254;16.422;2023-12-28T11:50:11;7.60;;;7.00;;
17181;SDS011;8706;48.254;16.422;2023-12-28T11:52:39;6.17;;;5.67;;
17181;SDS011;8706;48.254;16.422;2023-12-28T11:55:06;6.50;;;5.90;;
17181;SDS011;8706;48.254;16.422;2023-12-28T11:57:34;6.07;;;5.57;;
17181;SDS011;8706;48.254;16.422;2023-12-28T12:00:03;6.47;;;5.97;;
17181;SDS011;8706;48.254;16.422;2023-12-28T12:02:33;6.67;;;6.07;;
17181;SDS011;8706;48.254;16.422;2023-12-28T12:05:00;6.73;;;6.17;;
17181;SDS011;8706;48.254;16.422;2023-12-28T12:07:28;7.10;;;6.40;;
17181;SDS011;8706;48.254;16.422;2023-12-28T12:09:55;6.60;;;6.10;;
17181;SDS011;8706;48.254;16.422;2023-12-28T12:12:22;6.47;;;5.97;;
17181;SDS011;8706;48.254;16.422;2023-12-28T12:14:49;6.03;;;5.53;;
17181;SDS011;8706;48.254;16.422;2023-12-28T12:17:17;5.70;;;5.20;;
17181;SDS011;8706;48.254;16.422;2023-12-28T12:19:45;6.67;;;6.07;;
17181;SDS011;8706;48.254;16.422;2023-12-28T12:22:14;7.00;;;6.40;;
17181;SDS011;8706;48.254;16.422;2023-12-28T12:24:42;7.13;;;6.53;;
17181;SDS011;8706;48.254;16.422;2023-12-28T12:27:10;5.90;;;5.50;;
17181;SDS011;8706;48.254;16.422;2023-12-28T12:29:38;7.23;;;6.67;;
17181;SDS011;8706;48.254;16.422;2023-12-28T12:32:05;6.30;;;5.80;;
17181;SDS011;8706;48.254;16.422;2023-12-28T12:34:32;6.30;;;5.80;;
17181;SDS011;8706;48.254;16.422;2023-12-28T12:37:01;6.90;;;6.30;;
17181;SDS011;8706;48.254;16.422;2023-12-28T12:39:28;6.13;;;5.63;;
17181;SDS011;8706;48.254;16.422;2023-12-28T12:41:55;5.97;;;5.50;;
17181;SDS011;8706;48.254;16.422;2023-12-28T12:44:23;6.40;;;5.90;;
17181;SDS011;8706;48.254;16.422;2023-12-28T12:46:56;6.23;;;5.73;;
17181;SDS011;8706;48.254;16.422;2023-12-28T12:49:24;6.50;;;6.00;;
17181;SDS011;8706;48.254;16.422;2023-12-28T12:51:51;6.90;;;6.30;;
17181;SDS011;8706;48.254;16.422;2023-12-28T12:54:20;6.97;;;6.40;;
17181;SDS011;8706;48.254;16.422;2023-12-28T12:56:47;6.40;;;5.90;;
17181;SDS011;8706;48.254;16.422;2023-12-28T12:59:15;6.77;;;6.27;;
17181;SDS011;8706;48.254;16.422;2023-12-28T13:01:42;7.27;;;6.67;;
17181;SDS011;8706;48.254;16.422;2023-12-28T13:04:10;7.57;;;6.97;;
17181;SDS011;8706;48.254;16.422;2023-12-28T13:06:37;7.13;;;6.53;;
17181;SDS011;8706;48.254;16.422;2023-12-28T13:09:04;6.47;;;5.87;;
17181;SDS011;8706;48.254;16.422;2023-12-28T13:11:33;7.40;;;6.80;;
17181;SDS011;8706;48.254;16.422;2023-12-28T13:14:00;6.40;;;5.90;;
17181;SDS011;8706;48.254;16.422;2023-12-28T13:16:27;6.73;;;6.27;;
17181;SDS011;8706;48.254;16.422;2023-12-28T13:18:54;6.27;;;5.77;;
17181;SDS011;8706;48.254;16.422;2023-12-28T13:21:21;7.40;;;6.80;;
17181;SDS011;8706;48.254;16.422;2023-12-28T13:23:48;6.60;;;6.10;;
17181;SDS011;8706;48.254;16.422;2023-12-28T13:26:15;6.37;;;5.90;;
17181;SDS011;8706;48.254;16.422;2023-12-28T13:28:43;5.93;;;5.43;;
17181;SDS011;8706;48.254;16.422;2023-12-28T13:31:10;6.23;;;5.73;;
17181;SDS011;8706;48.254;16.422;2023-12-28T13:33:37;6.30;;;5.80;;
17181;SDS011;8706;48.254;16.422;2023-12-28T13:36:04;6.63;;;6.13;;
17181;SDS011;8706;48.254;16.422;2023-12-28T13:38:31;6.07;;;5.57;;
17181;SDS011;8706;48.254;16.422;2023-12-28T13:40:58;6.57;;;6.07;;
17181;SDS011;8706;48.254;16.422;2023-12-28T13:43:25;6.83;;;6.33;;
17181;SDS011;8706;48.254;16.422;2023-12-28T13:45:53;6.30;;;5.80;;
17181;SDS011;8706;48.254;16.422;2023-12-28T13:48:20;7.40;;;6.80;;
17181;SDS011;8706;48.254;16.422;2023-12-28T13:50:46;6.43;;;5.93;;
17181;SDS011;8706;48.254;16.422;2023-12-28T13:53:14;5.97;;;5.57;;
17181;SDS011;8706;48.254;16.422;2023-12-28T13:55:41;5.57;;;5.17;;
17181;SDS011;8706;48.254;16.422;2023-12-28T13:58:08;6.43;;;5.93;;
17181;SDS011;8706;48.254;16.422;2023-12-28T14:00:35;5.97;;;5.47;;
17181;SDS011;8706;48.254;16.422;2023-12-28T14:03:03;6.10;;;5.60;;
17181;SDS011;8706;48.254;16.422;2023-12-28T14:05:30;6.53;;;6.03;;
17181;SDS011;8706;48.254;16.422;2023-12-28T14:07:57;6.63;;;6.13;;
17181;SDS011;8706;48.254;16.422;2023-12-28T14:10:24;6.23;;;5.73;;
17181;SDS011;8706;48.254;16.422;2023-12-28T14:12:51;5.70;;;5.30;;
17181;SDS011;8706;48.254;16.422;2023-12-28T14:15:18;6.23;;;5.73;;
17181;SDS011;8706;48.254;16.422;2023-12-28T14:17:45;5.80;;;5.30;;
17181;SDS011;8706;48.254;16.422;2023-12-28T14:20:13;6.87;;;6.37;;
17181;SDS011;8706;48.254;16.422;2023-12-28T14:22:40;5.70;;;5.30;;
17181;SDS011;8706;48.254;16.422;2023-12-28T14:25:08;5.50;;;5.10;;
17181;SDS011;8706;48.254;16.422;2023-12-28T14:27:37;6.07;;;5.57;;
17181;SDS011;8706;48.254;16.422;2023-12-28T14:30:05;6.37;;;5.87;;
17181;SDS011;8706;48.254;16.422;2023-12-28T14:32:35;6.23;;;5.73;;
17181;SDS011;8706;48.254;16.422;2023-12-28T14:35:03;5.90;;;5.50;;
17181;SDS011;8706;48.254;16.422;2023-12-28T14:37:32;5.77;;;5.37;;
17181;SDS011;8706;48.254;16.422;2023-12-28T14:39:59;5.77;;;5.37;;
17181;SDS011;8706;48.254;16.422;2023-12-28T14:42:31;5.70;;;5.30;;
17181;SDS011;8706;48.254;16.422;2023-12-28T14:44:58;5.60;;;5.20;;
17181;SDS011;8706;48.254;16.422;2023-12-28T14:47:26;5.60;;;5.20;;
17181;SDS011;8706;48.254;16.422;2023-12-28T14:49:53;6.47;;;5.97;;
17181;SDS011;8706;48.254;16.422;2023-12-28T14:52:20;6.67;;;6.17;;
17181;SDS011;8706;48.254;16.422;2023-12-28T14:54:49;6.53;;;6.03;;